Time;durP1;ratioP1;P1;durP2;ratioP2;P2;SDS_P1;SDS_P2;PMS_P1;PMS_P2;Temp;Humidity;BMP_temperature;BMP_pressure;BME280_temperature;BME280_humidity;BME280_pressure;Samples;Min_cycle;Max_cycle;Signal;HPM_P1;HPM_P2
2022/05/22 00:01:23;;;;;;;;;4.00;4.00;;;;;19.63;38.22;98631.44;6044890;28;98606;-73
2022/05/22 00:04:28;;;;;;;;;3.00;3.00;;;;;19.52;38.41;98629.06;6036494;28;96501;-74
2022/05/22 00:07:31;;;;;;;;;4.60;4.00;;;;;19.40;39.03;98627.47;6026730;28;97277;-73
2022/05/22 00:10:35;;;;;;;;;3.00;3.00;;;;;19.42;38.69;98627.19;6045838;28;97228;-75
2022/05/22 00:13:38;;;;;;;;;3.00;3.00;;;;;19.39;39.02;98625.06;6043065;28;97595;-75
2022/05/22 00:16:46;;;;;;;;;3.00;3.00;;;;;19.29;39.11;98597.78;6028330;28;96493;-74
2022/05/22 00:19:51;;;;;;;;;3.00;3.00;;;;;19.43;39.17;98618.72;6037478;28;98086;-75
2022/05/22 00:22:55;;;;;;;;;4.00;4.00;;;;;19.39;39.18;98614.94;6032310;28;96606;-75
2022/05/22 00:25:58;;;;;;;;;4.00;3.00;;;;;19.34;39.55;98612.25;6028904;28;99444;-75
2022/05/22 00:29:02;;;;;;;;;3.00;3.00;;;;;19.26;39.74;98618.28;6026629;28;98697;-75
2022/05/22 00:32:07;;;;;;;;;4.00;3.00;;;;;19.27;39.74;98614.47;6027490;28;97397;-75
2022/05/22 00:35:12;;;;;;;;;5.20;4.00;;;;;19.25;39.58;98615.88;6045240;28;97425;-74
2022/05/22 00:38:15;;;;;;;;;3.80;3.80;;;;;19.14;39.71;98619.75;6027481;28;98523;-75
2022/05/22 00:41:20;;;;;;;;;3.00;3.00;;;;;19.07;39.99;98620.06;6034770;28;99911;-75
2022/05/22 00:44:23;;;;;;;;;3.00;3.00;;;;;19.05;40.17;98608.63;6052252;28;96673;-74
2022/05/22 00:47:27;;;;;;;;;3.00;3.00;;;;;18.97;40.51;98609.19;6044917;28;97482;-75
2022/05/22 00:50:32;;;;;;;;;4.00;4.00;;;;;18.96;40.30;98607.59;6027061;28;98375;-74
2022/05/22 00:53:41;;;;;;;;;3.00;3.00;;;;;18.90;40.99;98603.25;6027174;28;98397;-73
2022/05/22 00:56:49;;;;;;;;;4.00;4.00;;;;;18.89;40.64;98607.06;6044240;28;98127;-75
2022/05/22 01:00:00;;;;;;;;;3.00;3.00;;;;;18.94;40.76;98610.59;6027095;28;99489;-74
2022/05/22 01:06:30;;;;;;;;;3.00;3.00;;;;;19.00;40.93;98605.91;6027193;28;98130;-74
2022/05/22 01:09:35;;;;;;;;;3.00;2.00;;;;;19.04;40.83;98605.06;6011334;28;98146;-74
2022/05/22 01:12:47;;;;;;;;;3.00;3.00;;;;;19.10;40.90;98607.78;6019722;28;98622;-73
2022/05/22 01:15:50;;;;;;;;;4.00;4.00;;;;;19.03;41.33;98602.59;6023492;28;97661;-73
2022/05/22 01:18:56;;;;;;;;;2.25;2.25;;;;;19.07;41.36;98609.13;6044194;28;96472;-73
2022/05/22 01:22:13;;;;;;;;;3.60;3.00;;;;;19.21;41.41;98612.84;6027693;28;96989;-72
2022/05/22 01:25:18;;;;;;;;;3.00;3.00;;;;;19.28;41.01;98610.63;6026748;28;96649;-75
2022/05/22 01:28:22;;;;;;;;;3.00;3.00;;;;;19.19;41.25;98611.53;6011300;28;98380;-72
2022/05/22 01:31:27;;;;;;;;;5.00;4.40;;;;;19.00;41.70;98601.28;6019008;29;97545;-73
2022/05/22 01:34:34;;;;;;;;;3.00;3.00;;;;;19.15;41.38;98608.56;6046148;28;96792;-75
2022/05/22 01:37:38;;;;;;;;;5.00;4.40;;;;;19.14;41.53;98609.66;6012208;28;97039;-73
2022/05/22 01:40:46;;;;;;;;;4.00;4.00;;;;;19.14;41.77;98606.91;6026637;28;97934;-73
2022/05/22 01:43:52;;;;;;;;;3.20;3.00;;;;;19.18;41.79;98602.50;6029478;28;97623;-73
2022/05/22 01:46:57;;;;;;;;;3.80;3.20;;;;;19.21;41.76;98598.38;6042377;28;97956;-73
2022/05/22 01:50:05;;;;;;;;;3.00;3.00;;;;;19.06;41.54;98591.09;6026761;28;97500;-73
2022/05/22 01:53:12;;;;;;;;;4.00;4.00;;;;;19.09;41.79;98582.34;6026807;28;97727;-73
2022/05/22 01:56:16;;;;;;;;;3.00;3.00;;;;;19.15;41.78;98591.34;6041517;28;96996;-74
2022/05/22 01:59:21;;;;;;;;;4.00;4.00;;;;;19.12;41.96;98598.16;6011109;28;96565;-74
2022/05/22 02:02:30;;;;;;;;;3.00;3.00;;;;;19.07;42.15;98590.00;6017827;29;97590;-74
2022/05/22 02:05:36;;;;;;;;;4.00;3.00;;;;;18.93;42.27;98576.19;6019353;28;97470;-74
2022/05/22 02:08:44;;;;;;;;;4.00;4.00;;;;;18.84;42.39;98571.59;6033928;28;97050;-73
2022/05/22 02:11:48;;;;;;;;;6.00;5.00;;;;;18.84;42.65;98580.59;6002657;29;97795;-74
2022/05/22 02:14:51;;;;;;;;;4.00;4.00;;;;;18.82;42.59;98584.72;6018812;29;96663;-74
2022/05/22 02:17:56;;;;;;;;;4.00;4.00;;;;;18.71;43.23;98578.50;6018821;29;96955;-73
2022/05/22 02:21:00;;;;;;;;;4.00;4.00;;;;;18.60;43.52;98568.75;6018405;29;96676;-74
2022/05/22 02:24:07;;;;;;;;;4.00;3.60;;;;;18.47;43.86;98583.75;6002240;29;97053;-74
2022/05/22 02:27:10;;;;;;;;;3.00;3.00;;;;;18.44;43.83;98591.72;6018721;29;96946;-74
2022/05/22 02:30:18;;;;;;;;;3.25;3.00;;;;;18.28;44.36;98577.31;6018374;29;97406;-74
2022/05/22 02:33:21;;;;;;;;;3.00;3.00;;;;;18.19;44.72;98578.97;6018767;28;96935;-73
2022/05/22 02:36:30;;;;;;;;;3.00;3.00;;;;;18.23;44.49;98580.03;6033722;28;97401;-73
2022/05/22 02:39:35;;;;;;;;;2.60;2.60;;;;;18.21;44.52;98574.06;6023440;28;96791;-73
2022/05/22 02:42:59;;;;;;;;;3.00;3.00;;;;;18.18;44.51;98569.16;6019304;29;96651;-72
2022/05/22 02:46:09;;;;;;;;;2.50;2.50;;;;;18.10;44.77;98570.56;6018546;29;96475;-73
2022/05/22 02:49:12;;;;;;;;;2.00;2.00;;;;;18.10;44.53;98576.00;6018422;29;96438;-74
2022/05/22 02:52:16;;;;;;;;;3.50;3.50;;;;;18.07;44.96;98583.94;6002283;29;96689;-72
2022/05/22 02:55:22;;;;;;;;;3.40;3.00;;;;;17.95;45.39;98576.06;6020476;29;96694;-73
2022/05/22 02:58:25;;;;;;;;;4.40;4.40;;;;;17.93;45.30;98585.63;6023496;29;96579;-75
2022/05/22 03:01:28;;;;;;;;;4.00;3.00;;;;;18.01;45.37;98582.31;6026570;28;96842;-73
2022/05/22 03:04:32;;;;;;;;;4.00;4.00;;;;;17.99;45.25;98584.50;6018721;28;98498;-75
2022/05/22 03:07:46;;;;;;;;;5.60;5.00;;;;;17.93;45.61;98586.44;6014040;28;98885;-74
2022/05/22 03:11:08;;;;;;;;;4.60;4.40;;;;;17.87;45.84;98589.44;6013984;28;98538;-74
2022/05/22 03:14:12;;;;;;;;;4.00;4.00;;;;;17.75;46.33;98573.38;6023438;28;98450;-75
2022/05/22 03:17:15;;;;;;;;;5.00;5.00;;;;;17.82;46.17;98576.66;6012843;28;97777;-75
2022/05/22 03:20:23;;;;;;;;;5.75;5.75;;;;;17.74;46.62;98579.91;6045272;28;97491;-75
2022/05/22 03:23:27;;;;;;;;;5.60;5.00;;;;;17.73;46.51;98576.41;6026973;28;97671;-73
2022/05/22 03:26:32;;;;;;;;;6.00;6.00;;;;;17.74;46.93;98574.44;6041063;28;97525;-75
2022/05/22 03:29:35;;;;;;;;;5.00;5.00;;;;;17.82;46.60;98573.09;6036785;28;97471;-74
2022/05/22 03:32:39;;;;;;;;;5.00;5.00;;;;;17.97;46.46;98564.88;6013044;28;98440;-72
2022/05/22 03:35:42;;;;;;;;;5.00;4.33;;;;;17.80;46.24;98532.47;6013260;28;98387;-74
2022/05/22 03:38:47;;;;;;;;;7.00;5.40;;;;;18.13;45.95;98563.75;6029568;28;97153;-72
2022/05/22 03:41:52;;;;;;;;;6.00;4.80;;;;;18.09;46.32;98557.19;6028646;28;97432;-73
2022/05/22 03:44:58;;;;;;;;;5.00;5.00;;;;;18.13;46.10;98548.16;6012942;28;96899;-73
2022/05/22 03:48:04;;;;;;;;;6.00;6.00;;;;;18.18;45.98;98553.59;6022644;28;96437;-73
2022/05/22 03:51:08;;;;;;;;;5.00;5.00;;;;;18.31;45.79;98562.28;6028121;28;96708;-73
2022/05/22 03:54:12;;;;;;;;;5.00;4.00;;;;;18.31;45.99;98562.28;6027422;28;98537;-73
2022/05/22 03:57:20;;;;;;;;;6.00;5.00;;;;;18.40;45.51;98558.69;6043888;28;96940;-73
2022/05/22 04:00:24;;;;;;;;;6.00;6.00;;;;;18.55;45.30;98560.56;6045131;28;96660;-73
2022/05/22 04:03:31;;;;;;;;;5.00;5.00;;;;;18.72;45.13;98561.00;6011104;28;96848;-74
2022/05/22 04:06:35;;;;;;;;;5.60;5.00;;;;;18.70;45.03;98565.94;6042006;28;98111;-73
2022/05/22 04:09:38;;;;;;;;;6.20;4.00;;;;;18.76;44.88;98559.38;6024017;28;99747;-73
2022/05/22 04:12:53;;;;;;;;;5.00;5.00;;;;;18.80;44.88;98548.69;6024559;28;97739;-72
2022/05/22 04:15:56;;;;;;;;;6.60;6.00;;;;;18.95;44.72;98565.78;6017469;28;98249;-73
2022/05/22 04:19:01;;;;;;;;;5.00;4.60;;;;;18.98;44.53;98558.94;6026841;28;98458;-73
2022/05/22 04:22:05;;;;;;;;;6.20;5.20;;;;;19.00;44.50;98576.69;6030747;28;97501;-74
2022/05/22 04:25:12;;;;;;;;;6.00;6.00;;;;;19.05;44.35;98570.38;6026696;28;99420;-73
2022/05/22 04:28:16;;;;;;;;;6.00;5.25;;;;;19.14;44.13;98570.56;6026532;28;99579;-73
2022/05/22 04:31:29;;;;;;;;;5.60;5.00;;;;;19.20;44.21;98573.00;6038883;28;96696;-73
2022/05/22 04:34:48;;;;;;;;;7.60;7.00;;;;;19.25;43.84;98580.34;6026819;28;98569;-72
2022/05/22 04:37:53;;;;;;;;;7.00;6.00;;;;;19.30;43.93;98583.03;6026746;28;97338;-72
2022/05/22 04:40:58;;;;;;;;;5.40;5.40;;;;;19.42;43.82;98586.19;6011439;28;99857;-73
2022/05/22 04:44:03;;;;;;;;;5.00;5.00;;;;;19.48;43.46;98587.81;6010900;28;97082;-73
2022/05/22 04:47:07;;;;;;;;;5.50;5.50;;;;;19.64;43.55;98586.59;6007189;28;96730;-72
2022/05/22 04:50:13;;;;;;;;;7.00;7.00;;;;;19.82;43.02;98585.03;6044204;28;97504;-73
2022/05/22 04:53:34;;;;;;;;;8.75;7.00;;;;;19.90;42.98;98584.41;6026225;28;99082;-73
2022/05/22 04:56:47;;;;;;;;;8.00;7.25;;;;;20.06;42.34;98576.84;6025705;28;97398;-73
2022/05/22 04:59:56;;;;;;;;;9.50;8.75;;;;;20.17;42.25;98581.09;6046192;28;98002;-73
2022/05/22 05:03:02;;;;;;;;;6.00;6.00;;;;;20.15;42.42;98573.19;6025113;28;97713;-73
2022/05/22 05:06:06;;;;;;;;;6.20;6.20;;;;;20.02;42.54;98578.53;6034218;28;96721;-73
2022/05/22 05:09:12;;;;;;;;;7.00;7.00;;;;;20.03;42.54;98581.00;6041715;28;97221;-74
2022/05/22 05:12:15;;;;;;;;;5.60;5.00;;;;;20.01;42.45;98574.97;6025604;28;98246;-73
2022/05/22 05:15:23;;;;;;;;;6.60;6.00;;;;;20.10;42.40;98575.16;5989907;28;97010;-72
2022/05/22 05:18:35;;;;;;;;;5.00;5.00;;;;;20.03;42.36;98580.19;6010320;28;99964;-73
2022/05/22 05:21:41;;;;;;;;;6.33;5.00;;;;;19.97;42.55;98578.59;6020507;28;97063;-73
2022/05/22 05:24:47;;;;;;;;;7.80;6.00;;;;;19.83;42.52;98556.59;6009272;28;96710;-73
2022/05/22 05:27:50;;;;;;;;;7.60;6.40;;;;;20.14;42.51;98570.72;6008281;28;98606;-73
2022/05/22 05:30:57;;;;;;;;;7.00;7.00;;;;;20.33;42.19;98579.03;6019990;28;98889;-73
2022/05/22 05:34:01;;;;;;;;;9.60;9.00;;;;;20.47;41.58;98574.47;6010412;28;96956;-73
2022/05/22 05:37:09;;;;;;;;;6.60;6.40;;;;;20.41;41.63;98575.66;6015950;28;97521;-74
2022/05/22 05:40:18;;;;;;;;;7.00;6.00;;;;;20.58;41.69;98568.56;6010345;28;96694;-73
2022/05/22 05:43:22;;;;;;;;;7.60;6.00;;;;;20.69;41.26;98570.06;6041912;28;97999;-74
2022/05/22 05:46:27;;;;;;;;;6.00;6.00;;;;;20.68;40.73;98565.69;6040863;28;97473;-73
2022/05/22 05:49:31;;;;;;;;;7.00;7.00;;;;;20.54;41.38;98569.44;6025669;28;97714;-73
2022/05/22 05:53:13;;;;;;;;;7.40;6.40;;;;;20.73;41.22;98568.34;5947018;29;96870;-73
2022/05/22 05:56:22;;;;;;;;;3.80;3.80;;;;;20.66;40.53;98573.41;5947151;29;96817;-73
2022/05/22 05:59:44;;;;;;;;;5.50;5.50;;;;;20.67;40.74;98571.47;6015293;28;98275;-72
2022/05/22 06:02:53;;;;;;;;;4.00;4.00;;;;;20.91;40.76;98568.66;6024719;28;97499;-74
2022/05/22 06:05:57;;;;;;;;;5.75;5.00;;;;;21.13;39.58;98561.50;6025064;28;96822;-72
2022/05/22 06:09:04;;;;;;;;;5.00;5.00;;;;;21.22;39.83;98569.03;6034713;28;97498;-73
2022/05/22 06:12:37;;;;;;;;;5.00;5.00;;;;;21.17;40.07;98558.97;6006490;28;98251;-74
2022/05/22 06:15:45;;;;;;;;;5.00;5.00;;;;;21.18;39.59;98564.16;6025564;28;98420;-73
2022/05/22 06:18:50;;;;;;;;;4.75;4.75;;;;;21.24;38.77;98561.31;6022307;28;97134;-72
2022/05/22 06:21:55;;;;;;;;;6.00;4.00;;;;;21.20;39.14;98571.28;6046572;28;96966;-74
2022/05/22 06:24:58;;;;;;;;;5.00;5.00;;;;;21.20;38.87;98572.09;6047147;28;97444;-73
2022/05/22 06:28:14;;;;;;;;;4.00;4.00;;;;;21.25;38.28;98574.75;6024424;28;96509;-73
2022/05/22 06:31:36;;;;;;;;;4.00;3.00;;;;;21.03;38.29;98571.75;6043913;28;98505;-74
2022/05/22 06:34:58;;;;;;;;;4.60;4.00;;;;;21.37;37.94;98564.13;6018923;28;97543;-73
2022/05/22 06:42:16;;;;;;;;;4.40;4.40;;;;;21.42;37.21;98561.28;6004450;28;97166;-72
2022/05/22 06:45:22;;;;;;;;;6.00;6.00;;;;;21.54;37.25;98569.06;6018807;28;97047;-72
2022/05/22 06:48:46;;;;;;;;;5.00;5.00;;;;;21.59;36.80;98566.22;6016022;28;97748;-73
2022/05/22 06:52:14;;;;;;;;;4.00;4.00;;;;;21.58;36.71;98559.09;6042951;28;97548;-73
2022/05/22 06:55:41;;;;;;;;;5.00;5.00;;;;;21.87;36.72;98567.09;6028665;28;96606;-73
2022/05/22 06:59:11;;;;;;;;;3.00;3.00;;;;;22.01;36.28;98567.94;6022694;28;98142;-73
2022/05/22 07:02:36;;;;;;;;;4.00;3.75;;;;;22.33;35.60;98556.06;6054696;28;97925;-74
2022/05/22 07:06:00;;;;;;;;;4.80;4.00;;;;;22.61;35.36;98565.88;6027084;28;98138;-73
2022/05/22 07:09:23;;;;;;;;;3.50;3.50;;;;;22.84;35.00;98561.28;6043620;28;97080;-74
2022/05/22 07:12:32;;;;;;;;;6.00;3.40;;;;;22.75;34.84;98566.69;6043036;28;96556;-74
2022/05/22 07:16:05;;;;;;;;;3.00;3.00;;;;;22.51;35.10;98557.03;6004753;29;99644;-73
2022/05/22 07:19:37;;;;;;;;;5.00;5.00;;;;;22.26;34.81;98556.47;6042135;28;97601;-73
2022/05/22 07:23:01;;;;;;;;;3.40;2.00;;;;;22.10;34.90;98562.53;6029384;28;97551;-74
2022/05/22 07:26:18;;;;;;;;;3.00;3.00;;;;;21.98;34.27;98552.09;6019874;28;98274;-73
2022/05/22 07:29:43;;;;;;;;;4.00;4.00;;;;;22.00;34.72;98555.31;6039582;28;97401;-74
2022/05/22 07:33:08;;;;;;;;;3.60;3.00;;;;;21.90;34.82;98534.34;6043552;28;97984;-74
2022/05/22 07:36:33;;;;;;;;;3.00;3.00;;;;;22.13;34.97;98551.78;6028802;28;97025;-73
2022/05/22 07:39:40;;;;;;;;;4.00;4.00;;;;;22.33;34.54;98556.06;6046090;28;97402;-72
2022/05/22 07:43:03;;;;;;;;;3.75;3.00;;;;;22.58;34.02;98552.75;6045635;28;97081;-73
2022/05/22 07:46:14;;;;;;;;;4.00;3.40;;;;;22.56;33.33;98543.19;6012408;28;97744;-74
2022/05/22 07:53:04;;;;;;;;;3.50;3.00;;;;;22.68;33.11;98551.72;6042837;28;97146;-73
2022/05/22 07:56:14;;;;;;;;;3.00;3.00;;;;;22.74;32.85;98553.25;6046117;28;97049;-73
2022/05/22 07:59:39;;;;;;;;;3.00;3.00;;;;;22.82;32.06;98544.31;6046243;28;97955;-73
2022/05/22 08:03:21;;;;;;;;;3.00;3.00;;;;;23.28;31.04;98525.56;6028144;28;98182;-74
2022/05/22 08:06:30;;;;;;;;;5.00;4.00;;;;;23.76;29.13;98549.66;6026838;28;97130;-74
2022/05/22 08:09:39;;;;;;;;;4.00;4.00;;;;;24.20;28.95;98531.41;6027922;28;96776;-73
2022/05/22 08:12:45;;;;;;;;;3.00;2.60;;;;;24.57;28.87;98539.16;6042945;28;96806;-74
2022/05/22 08:16:16;;;;;;;;;4.00;3.00;;;;;24.81;28.60;98549.72;6024867;28;97934;-74
2022/05/22 08:19:31;;;;;;;;;3.00;2.80;;;;;25.11;28.15;98529.50;6020587;28;97378;-73
2022/05/22 08:22:47;;;;;;;;;3.00;3.00;;;;;25.35;28.05;98524.28;6048234;28;98093;-73
2022/05/22 08:25:56;;;;;;;;;3.00;2.00;;;;;25.06;26.75;98534.34;6027603;28;97789;-74
2022/05/22 08:29:02;;;;;;;;;5.00;4.80;;;;;25.10;26.82;98521.53;6026528;28;97058;-74
2022/05/22 08:32:10;;;;;;;;;4.00;4.00;;;;;25.05;26.95;98527.22;6036711;28;97660;-74
2022/05/22 08:35:16;;;;;;;;;3.00;3.00;;;;;24.90;28.17;98528.50;6032887;28;97561;-74
2022/05/22 08:38:19;;;;;;;;;3.00;3.00;;;;;24.59;27.56;98531.34;6042956;28;96644;-74
2022/05/22 08:41:30;;;;;;;;;3.00;3.00;;;;;24.65;27.49;98521.81;6026289;28;97089;-73
2022/05/22 08:44:34;;;;;;;;;3.00;3.00;;;;;24.28;26.76;98525.97;6033810;28;97953;-72
2022/05/22 08:47:50;;;;;;;;;3.33;3.00;;;;;24.53;27.59;98525.19;6052204;28;97449;-73
2022/05/22 08:50:57;;;;;;;;;3.00;3.00;;;;;24.56;27.84;98524.56;6051157;28;96901;-74
2022/05/22 08:54:13;;;;;;;;;4.00;4.00;;;;;24.65;27.63;98532.03;6049969;28;96521;-74
2022/05/22 09:01:07;;;;;;;;;3.00;3.00;;;;;24.74;27.51;98492.31;6024654;28;97012;-73
2022/05/22 09:04:28;;;;;;;;;4.00;4.00;;;;;25.31;27.01;98508.69;6017595;28;96558;-72
2022/05/22 09:07:48;;;;;;;;;2.00;2.00;;;;;25.50;26.47;98503.63;6016016;28;96736;-74
2022/05/22 09:11:04;;;;;;;;;3.00;3.00;;;;;25.57;26.14;98516.94;6025984;28;97231;-74
2022/05/22 09:14:10;;;;;;;;;3.00;2.80;;;;;25.41;26.13;98508.34;6039578;28;97234;-74
2022/05/22 09:17:17;;;;;;;;;2.00;2.00;;;;;25.20;26.01;98499.13;6026609;28;99170;-74
2022/05/22 09:20:31;;;;;;;;;3.00;2.80;;;;;25.27;25.78;98507.69;6045661;28;96791;-73
2022/05/22 09:23:58;;;;;;;;;3.00;2.00;;;;;25.04;25.57;98504.34;6026971;28;98166;-73
2022/05/22 09:27:09;;;;;;;;;2.00;2.00;;;;;25.49;24.97;98507.50;6044005;28;97438;-73
2022/05/22 09:30:20;;;;;;;;;2.00;2.00;;;;;25.45;24.89;98509.31;6043818;28;96945;-74
2022/05/22 09:33:35;;;;;;;;;2.00;2.00;;;;;25.37;24.97;98510.13;6040086;28;97372;-74
2022/05/22 09:36:53;;;;;;;;;3.00;3.00;;;;;25.24;25.04;98517.47;6027602;28;97564;-74
2022/05/22 09:40:16;;;;;;;;;2.00;1.00;;;;;25.14;24.64;98506.75;6010360;28;96923;-74
2022/05/22 09:43:41;;;;;;;;;2.00;2.00;;;;;24.76;24.78;98489.22;6043199;28;97462;-73
2022/05/22 09:47:16;;;;;;;;;2.00;2.00;;;;;25.26;24.82;98503.34;6044093;28;97172;-74
2022/05/22 09:50:30;;;;;;;;;2.00;2.00;;;;;25.94;24.55;98499.59;6026168;28;98153;-74
2022/05/22 09:53:49;;;;;;;;;2.00;2.00;;;;;26.02;23.72;98495.16;6026004;28;96901;-74
2022/05/22 09:57:27;;;;;;;;;3.00;3.00;;;;;26.01;23.93;98491.59;6026076;28;97646;-74
2022/05/22 10:00:39;;;;;;;;;4.00;4.00;;;;;25.84;24.73;98495.25;6021692;28;97827;-74
2022/05/22 10:03:57;;;;;;;;;3.00;3.00;;;;;25.47;24.81;98479.44;6010734;28;98717;-73
2022/05/22 10:07:14;;;;;;;;;4.00;4.00;;;;;26.17;24.78;98489.91;6032513;28;98811;-74
2022/05/22 10:10:28;;;;;;;;;3.00;2.00;;;;;26.11;24.55;98476.59;6030297;28;96616;-74
2022/05/22 10:13:36;;;;;;;;;4.00;3.00;;;;;26.04;24.21;98460.56;6029672;28;98541;-74
2022/05/22 10:16:55;;;;;;;;;3.00;3.00;;;;;26.09;24.30;98482.47;6047858;28;97506;-74
2022/05/22 10:20:09;;;;;;;;;3.00;2.00;;;;;26.36;24.56;98474.84;6041521;28;96970;-74
2022/05/22 10:23:36;;;;;;;;;4.00;3.00;;;;;26.58;24.11;98471.78;6008119;28;97212;-74
2022/05/22 10:27:01;;;;;;;;;1.00;1.00;;;;;26.58;24.11;98474.56;6031115;28;98726;-72
2022/05/22 10:30:08;;;;;;;;;1.20;1.00;;;;;26.48;24.10;98478.53;6019640;28;97659;-76
2022/05/22 10:33:19;;;;;;;;;3.00;3.00;;;;;26.07;24.25;98476.47;6022764;28;97498;-73
2022/05/22 10:36:26;;;;;;;;;4.00;3.20;;;;;26.11;24.37;98473.84;6019867;28;98475;-73
2022/05/22 10:39:30;;;;;;;;;2.00;2.00;;;;;25.87;24.59;98489.06;6039025;28;98355;-75
2022/05/22 10:42:47;;;;;;;;;1.00;1.00;;;;;25.95;24.94;98478.31;6038041;28;97068;-72
2022/05/22 10:45:53;;;;;;;;;2.00;2.00;;;;;26.23;24.94;98480.31;6037973;28;96859;-72
2022/05/22 10:48:59;;;;;;;;;3.00;3.00;;;;;26.13;24.94;98483.41;6043856;28;96807;-73
2022/05/22 10:52:05;;;;;;;;;3.00;3.00;;;;;26.37;24.64;98487.53;6043496;28;96587;-73
2022/05/22 10:55:20;;;;;;;;;2.25;2.25;;;;;26.48;24.68;98497.06;6044573;28;97885;-75
2022/05/22 10:58:29;;;;;;;;;2.00;2.00;;;;;26.45;24.09;98492.19;6043327;28;97810;-74
2022/05/22 11:01:35;;;;;;;;;3.00;3.00;;;;;26.53;23.74;98488.56;6044180;28;97287;-73
2022/05/22 11:04:41;;;;;;;;;3.00;3.00;;;;;26.53;23.53;98488.56;6024443;28;96859;-72
2022/05/22 11:07:47;;;;;;;;;2.40;2.40;;;;;26.29;24.10;98445.78;6043482;28;97140;-74
2022/05/22 11:10:50;;;;;;;;;4.00;3.00;;;;;26.25;23.93;98488.25;6022072;28;98349;-74
2022/05/22 11:14:07;;;;;;;;;3.40;3.00;;;;;26.23;24.55;98477.56;6040336;28;97496;-75
2022/05/22 11:17:14;;;;;;;;;2.00;2.00;;;;;26.23;24.95;98483.06;6042806;28;96687;-73
2022/05/22 11:20:22;;;;;;;;;3.40;3.40;;;;;25.94;24.58;98482.22;6043272;28;98443;-74
2022/05/22 11:23:41;;;;;;;;;2.00;2.00;;;;;26.11;24.85;98480.16;6042588;28;96811;-73
2022/05/22 11:27:00;;;;;;;;;2.00;2.00;;;;;26.21;24.77;98457.72;6040704;28;96977;-74
2022/05/22 11:30:12;;;;;;;;;3.00;3.00;;;;;26.45;24.25;98478.38;6041829;28;96784;-74
2022/05/22 11:33:37;;;;;;;;;2.00;2.00;;;;;26.71;23.55;98473.47;6041275;28;98012;-75
2022/05/22 11:36:53;;;;;;;;;2.80;2.00;;;;;26.93;23.23;98464.84;6043214;28;97406;-74
2022/05/22 11:40:18;;;;;;;;;1.00;1.00;;;;;27.50;23.50;98467.72;6029543;28;98496;-74
2022/05/22 11:43:47;;;;;;;;;3.00;3.00;;;;;27.47;22.83;98465.59;6025162;28;98982;-75
2022/05/22 11:47:10;;;;;;;;;3.00;3.00;;;;;27.01;22.99;98469.50;6016653;28;97683;-75
2022/05/22 11:50:28;;;;;;;;;2.00;2.00;;;;;26.70;23.43;98475.41;6045883;28;97169;-74
2022/05/22 11:53:51;;;;;;;;;3.00;3.00;;;;;26.50;23.33;98478.97;6027682;28;96550;-75
2022/05/22 11:57:22;;;;;;;;;4.00;3.00;;;;;26.01;23.77;98447.41;6036533;28;97453;-74
2022/05/22 12:00:33;;;;;;;;;3.00;3.00;;;;;25.81;23.96;98481.28;6035065;28;97769;-73
2022/05/22 12:03:58;;;;;;;;;3.00;2.60;;;;;25.64;24.91;98482.19;6001722;28;97611;-74
2022/05/22 12:07:20;;;;;;;;;2.20;2.00;;;;;25.40;25.17;98479.13;5993404;29;97882;-74
2022/05/22 12:10:30;;;;;;;;;2.60;2.00;;;;;25.25;25.39;98482.41;5997015;29;98251;-74
2022/05/22 12:13:41;;;;;;;;;3.00;3.00;;;;;24.93;25.87;98486.50;5978771;29;97548;-73
2022/05/22 12:16:54;;;;;;;;;2.00;2.00;;;;;24.87;26.14;98479.53;6002705;29;97660;-74
2022/05/22 12:20:10;;;;;;;;;2.00;2.00;;;;;24.81;26.35;98483.56;6005812;28;98041;-76
2022/05/22 12:23:22;;;;;;;;;3.00;3.00;;;;;24.91;25.72;98488.78;5995963;29;97337;-75
2022/05/22 12:26:27;;;;;;;;;1.20;1.00;;;;;24.92;25.39;98493.16;6005486;29;97737;-76
2022/05/22 12:29:43;;;;;;;;;2.00;1.00;;;;;24.83;24.85;98489.53;5999300;28;97097;-74
2022/05/22 12:32:51;;;;;;;;;1.20;1.20;;;;;24.71;25.05;98492.16;5999049;29;97144;-75
2022/05/22 12:35:56;;;;;;;;;2.40;2.40;;;;;24.59;25.20;98488.06;5991987;29;98394;-75
2022/05/22 12:39:04;;;;;;;;;2.00;2.00;;;;;24.62;25.58;98483.88;5996713;29;97260;-74
2022/05/22 12:42:15;;;;;;;;;2.00;2.00;;;;;24.54;25.86;98490.16;5993762;29;98732;-74
2022/05/22 12:45:19;;;;;;;;;3.00;2.00;;;;;24.86;25.55;98489.72;5988922;29;97754;-72
2022/05/22 12:48:29;;;;;;;;;2.20;2.00;;;;;25.03;25.17;98484.22;6003088;28;98484;-73
2022/05/22 12:51:36;;;;;;;;;2.40;2.00;;;;;25.06;24.97;98487.47;5987430;29;98551;-73
2022/05/22 12:54:41;;;;;;;;;3.00;3.00;;;;;25.20;25.37;98488.91;5989568;29;96753;-74
2022/05/22 12:57:52;;;;;;;;;2.00;2.00;;;;;25.24;25.30;98492.63;5985885;29;96739;-74
2022/05/22 13:00:56;;;;;;;;;1.00;1.00;;;;;25.22;25.31;98492.13;5990811;28;96825;-73
2022/05/22 13:04:02;;;;;;;;;1.00;0.60;;;;;25.12;25.42;98491.69;6019337;28;99180;-74
2022/05/22 13:07:17;;;;;;;;;3.00;2.00;;;;;25.05;25.63;98492.16;6016297;28;97677;-74
2022/05/22 13:10:26;;;;;;;;;3.00;3.00;;;;;24.56;25.32;98419.00;6037182;28;97747;-76
2022/05/22 13:13:33;;;;;;;;;1.60;1.60;;;;;24.97;24.97;98496.53;6009978;28;99957;-74
2022/05/22 13:16:46;;;;;;;;;3.50;3.50;;;;;24.90;25.18;98482.44;6025455;28;97474;-73
2022/05/22 13:19:52;;;;;;;;;2.00;1.60;;;;;25.00;25.44;98489.56;6041698;28;97039;-74
2022/05/22 13:23:05;;;;;;;;;2.00;1.00;;;;;24.95;25.74;98479.53;6036983;28;98537;-74
2022/05/22 13:26:28;;;;;;;;;2.00;2.00;;;;;25.02;25.76;98482.59;6036216;28;96760;-73
2022/05/22 13:29:45;;;;;;;;;2.00;2.00;;;;;25.07;25.87;98478.84;6040997;28;97622;-75
2022/05/22 13:32:54;;;;;;;;;2.50;2.00;;;;;25.19;26.20;98472.69;6024399;28;97536;-75
2022/05/22 13:36:00;;;;;;;;;2.00;2.00;;;;;25.26;25.89;98453.69;6025569;28;96745;-75
2022/05/22 13:39:08;;;;;;;;;2.00;2.00;;;;;25.41;25.48;98478.78;6026317;28;99543;-75
2022/05/22 13:42:46;;;;;;;;;3.00;2.00;;;;;25.49;25.34;98463.34;6042804;28;97731;-75
2022/05/22 13:46:14;;;;;;;;;2.00;2.00;;;;;25.54;25.61;98460.41;6026100;28;97901;-74
2022/05/22 13:49:41;;;;;;;;;2.00;2.00;;;;;25.27;25.73;98458.84;6027054;28;97061;-75
2022/05/22 13:53:01;;;;;;;;;1.00;1.00;;;;;25.37;26.04;98475.06;6043164;28;97223;-76
2022/05/22 13:56:13;;;;;;;;;2.00;2.00;;;;;25.23;25.91;98457.09;6024789;28;97463;-74
2022/05/22 13:59:22;;;;;;;;;1.00;1.00;;;;;25.33;26.14;98476.88;6016717;28;100104;-75
2022/05/22 14:02:30;;;;;;;;;1.20;1.20;;;;;25.23;26.40;98449.63;6003518;28;98088;-74
2022/05/22 14:05:40;;;;;;;;;2.00;2.00;;;;;25.06;26.15;98418.50;6022060;28;98118;-74
2022/05/22 14:08:49;;;;;;;;;1.20;1.20;;;;;25.26;26.14;98460.03;6042919;28;97450;-75
2022/05/22 14:11:55;;;;;;;;;2.00;2.00;;;;;25.27;26.83;98460.81;6021530;28;97159;-74
2022/05/22 14:15:10;;;;;;;;;1.00;1.00;;;;;25.25;26.73;98465.84;6029795;28;97361;-74
2022/05/22 14:18:23;;;;;;;;;1.50;1.00;;;;;25.24;26.96;98456.75;6032033;28;98426;-73
2022/05/22 14:21:27;;;;;;;;;2.00;2.00;;;;;25.29;27.38;98462.09;6018136;28;99451;-73
2022/05/22 14:27:55;;;;;;;;;2.00;2.00;;;;;25.41;27.17;98453.16;6018853;28;98659;-74
2022/05/22 14:30:59;;;;;;;;;2.00;1.00;;;;;25.55;27.16;98456.56;6037634;28;98053;-75
2022/05/22 14:34:03;;;;;;;;;1.00;1.00;;;;;25.40;26.87;98457.06;6022602;28;97595;-74
2022/05/22 14:37:06;;;;;;;;;1.00;1.00;;;;;25.15;27.34;98444.13;6041710;28;97896;-74
2022/05/22 14:40:19;;;;;;;;;2.00;2.00;;;;;24.99;27.50;98455.66;6008387;28;98654;-74
2022/05/22 14:43:27;;;;;;;;;1.40;1.00;;;;;24.93;28.03;98458.91;6034291;28;97756;-73
2022/05/22 14:46:41;;;;;;;;;2.00;2.00;;;;;24.54;28.25;98415.75;6031212;28;96830;-73
2022/05/22 14:49:48;;;;;;;;;1.00;1.00;;;;;24.61;28.37;98457.44;6037142;28;100037;-73
2022/05/22 14:53:00;;;;;;;;;2.00;2.00;;;;;24.63;28.42;98441.38;6038868;28;96904;-74
2022/05/22 14:56:09;;;;;;;;;2.00;2.00;;;;;24.78;28.50;98456.63;6041029;28;97800;-74
2022/05/22 14:59:17;;;;;;;;;0.20;0.20;;;;;24.73;28.02;98454.06;6021700;28;98477;-74
2022/05/22 15:02:25;;;;;;;;;3.00;2.00;;;;;24.74;28.41;98461.97;6045325;28;97014;-73
2022/05/22 15:05:36;;;;;;;;;2.00;1.00;;;;;24.69;28.61;98451.09;6045127;28;98018;-69
2022/05/22 15:08:52;;;;;;;;;3.00;2.00;;;;;24.74;28.54;98463.91;6032076;28;99603;-71
2022/05/22 15:11:55;;;;;;;;;1.00;1.00;;;;;24.83;29.02;98443.47;6044286;28;97063;-69
2022/05/22 15:15:00;;;;;;;;;1.00;1.00;;;;;24.82;28.32;98447.41;6026070;28;97374;-69
2022/05/22 15:18:07;;;;;;;;;1.00;1.00;;;;;24.81;28.55;98454.03;6044265;28;97015;-70